Time;durP1;ratioP1;P1;durP2;ratioP2;P2;SDS_P1;SDS_P2;PMS_P1;PMS_P2;Temp;Humidity;BMP_temperature;BMP_pressure;BME280_temperature;BME280_humidity;BME280_pressure;Samples;Min_cycle;Max_cycle;Signal;HPM_P1;HPM_P2
2022/03/07 00:00:17;;;;;;;14.45;10;;;;;;;-0.19;40.23242;95426.76;;;;
2022/03/07 00:01:18;;;;;;;14.45;10;;;;;;;-0.19;40.23242;95426.76;;;;
2022/03/07 00:02:18;;;;;;;14.85;10;;;;;;;-0.19;40.91699;95431.64;;;;
2022/03/07 00:03:19;;;;;;;14.85;10;;;;;;;-0.19;40.91699;95431.64;;;;
2022/03/07 00:04:19;;;;;;;14.85;10;;;;;;;-0.19;40.91699;95431.64;;;;
2022/03/07 00:05:20;;;;;;;14.85;10;;;;;;;-0.19;40.91699;95431.64;;;;
2022/03/07 00:06:20;;;;;;;14.85;10;;;;;;;-0.19;40.91699;95431.64;;;;
2022/03/07 00:07:22;;;;;;;14.85;10;;;;;;;-0.19;40.91699;95431.64;;;;
2022/03/07 00:08:22;;;;;;;14.85;10;;;;;;;-0.19;40.91699;95431.64;;;;
2022/03/07 00:09:23;;;;;;;14.85;10;;;;;;;-0.19;40.91699;95431.64;;;;
2022/03/07 00:10:23;;;;;;;14.85;10;;;;;;;-0.19;40.91699;95431.64;;;;
2022/03/07 00:11:24;;;;;;;14.85;10;;;;;;;-0.19;40.91699;95431.64;;;;
2022/03/07 00:12:25;;;;;;;15.1;10.05;;;;;;;-0.22;40.73535;95430.17;;;;
2022/03/07 00:13:26;;;;;;;15.1;10.05;;;;;;;-0.22;40.73535;95430.17;;;;
2022/03/07 00:14:26;;;;;;;15.1;10.05;;;;;;;-0.22;40.73535;95430.17;;;;
2022/03/07 00:15:26;;;;;;;15.1;10.05;;;;;;;-0.22;40.73535;95430.17;;;;
2022/03/07 00:16:27;;;;;;;15.1;10.05;;;;;;;-0.22;40.73535;95430.17;;;;
2022/03/07 00:17:27;;;;;;;15.1;10.05;;;;;;;-0.22;40.73535;95430.17;;;;
2022/03/07 00:18:28;;;;;;;15.1;10.05;;;;;;;-0.22;40.73535;95430.17;;;;
2022/03/07 00:19:29;;;;;;;15.1;10.05;;;;;;;-0.22;40.73535;95430.17;;;;
2022/03/07 00:20:29;;;;;;;15.1;10.05;;;;;;;-0.22;40.73535;95430.17;;;;
2022/03/07 00:21:30;;;;;;;15.1;10.05;;;;;;;-0.22;40.73535;95430.17;;;;
2022/03/07 00:22:31;;;;;;;15.1;10.05;;;;;;;-0.22;40.73535;95430.17;;;;
2022/03/07 00:23:31;;;;;;;15.45;10.3;;;;;;;-0.3;41.11719;95438.61;;;;
2022/03/07 00:24:32;;;;;;;15.45;10.3;;;;;;;-0.3;41.11719;95438.61;;;;
2022/03/07 00:25:32;;;;;;;15.45;10.3;;;;;;;-0.3;41.11719;95438.61;;;;
2022/03/07 00:26:33;;;;;;;15.45;10.3;;;;;;;-0.3;41.11719;95438.61;;;;
2022/03/07 00:27:34;;;;;;;15.45;10.3;;;;;;;-0.3;41.11719;95438.61;;;;
2022/03/07 00:28:34;;;;;;;15.45;10.3;;;;;;;-0.3;41.11719;95438.61;;;;
2022/03/07 00:29:35;;;;;;;15.45;10.3;;;;;;;-0.3;41.11719;95438.61;;;;
2022/03/07 00:30:36;;;;;;;15.45;10.3;;;;;;;-0.3;41.11719;95438.61;;;;
2022/03/07 00:31:37;;;;;;;15.45;10.3;;;;;;;-0.3;41.11719;95438.61;;;;
2022/03/07 00:32:37;;;;;;;15.45;10.3;;;;;;;-0.3;41.11719;95438.61;;;;
2022/03/07 00:33:38;;;;;;;13.45;9.65;;;;;;;-0.39;40.93945;95435.55;;;;
2022/03/07 00:34:39;;;;;;;13.45;9.65;;;;;;;-0.39;40.93945;95435.55;;;;
2022/03/07 00:35:39;;;;;;;13.45;9.65;;;;;;;-0.39;40.93945;95435.55;;;;
2022/03/07 00:36:40;;;;;;;13.45;9.65;;;;;;;-0.39;40.93945;95435.55;;;;
2022/03/07 00:37:40;;;;;;;13.45;9.65;;;;;;;-0.39;40.93945;95435.55;;;;
2022/03/07 00:38:41;;;;;;;13.45;9.65;;;;;;;-0.39;40.93945;95435.55;;;;
2022/03/07 00:39:41;;;;;;;13.45;9.65;;;;;;;-0.39;40.93945;95435.55;;;;
2022/03/07 00:40:42;;;;;;;13.45;9.65;;;;;;;-0.39;40.93945;95435.55;;;;
2022/03/07 00:41:43;;;;;;;13.45;9.65;;;;;;;-0.39;40.93945;95435.55;;;;
2022/03/07 00:42:43;;;;;;;13.45;9.65;;;;;;;-0.39;40.93945;95435.55;;;;
2022/03/07 00:43:44;;;;;;;13.45;9.65;;;;;;;-0.39;40.93945;95435.55;;;;
2022/03/07 00:44:44;;;;;;;14.4;10.1;;;;;;;-0.43;41.125;95444.41;;;;
2022/03/07 00:45:45;;;;;;;14.4;10.1;;;;;;;-0.43;41.125;95444.41;;;;
2022/03/07 00:46:45;;;;;;;14.4;10.1;;;;;;;-0.43;41.125;95444.41;;;;
2022/03/07 00:47:46;;;;;;;14.4;10.1;;;;;;;-0.43;41.125;95444.41;;;;
2022/03/07 00:48:46;;;;;;;14.4;10.1;;;;;;;-0.43;41.125;95444.41;;;;
2022/03/07 00:49:47;;;;;;;14.4;10.1;;;;;;;-0.43;41.125;95444.41;;;;
2022/03/07 00:50:47;;;;;;;14.4;10.1;;;;;;;-0.43;41.125;95444.41;;;;
2022/03/07 00:51:50;;;;;;;14.4;10.1;;;;;;;-0.43;41.125;95444.41;;;;
2022/03/07 00:52:50;;;;;;;14.4;10.1;;;;;;;-0.43;41.125;95444.41;;;;
2022/03/07 00:53:51;;;;;;;14.4;10.1;;;;;;;-0.43;41.125;95444.41;;;;
2022/03/07 00:54:52;;;;;;;14.4;10.1;;;;;;;-0.43;41.125;95444.41;;;;
2022/03/07 00:55:52;;;;;;;14.4;10.1;;;;;;;-0.43;41.125;95444.41;;;;
2022/03/07 00:56:54;;;;;;;14.4;10.1;;;;;;;-0.43;41.125;95444.41;;;;
2022/03/07 00:57:54;;;;;;;14.4;10.1;;;;;;;-0.43;41.125;95444.41;;;;
2022/03/07 00:58:55;;;;;;;14.4;10.1;;;;;;;-0.43;41.125;95444.41;;;;
2022/03/07 00:59:56;;;;;;;14.4;10.1;;;;;;;-0.43;41.125;95444.41;;;;
2022/03/07 01:00:56;;;;;;;14.4;10.1;;;;;;;-0.43;41.125;95444.41;;;;
2022/03/07 01:01:56;;;;;;;14.4;10.1;;;;;;;-0.43;41.125;95444.41;;;;
2022/03/07 01:02:57;;;;;;;14.4;10.1;;;;;;;-0.43;41.125;95444.41;;;;
2022/03/07 01:03:57;;;;;;;14.4;10.1;;;;;;;-0.43;41.125;95444.41;;;;
2022/03/07 01:04:59;;;;;;;14.4;10.1;;;;;;;-0.43;41.125;95444.41;;;;
2022/03/07 01:05:59;;;;;;;15.05;9.45;;;;;;;-0.57;41.64844;95429.58;;;;
2022/03/07 01:07:00;;;;;;;15.05;9.45;;;;;;;-0.57;41.64844;95429.58;;;;
2022/03/07 01:08:00;;;;;;;15.05;9.45;;;;;;;-0.57;41.64844;95429.58;;;;
2022/03/07 01:09:01;;;;;;;15.05;9.45;;;;;;;-0.57;41.64844;95429.58;;;;
2022/03/07 01:10:02;;;;;;;15.05;9.45;;;;;;;-0.57;41.64844;95429.58;;;;
2022/03/07 01:11:03;;;;;;;15.05;9.45;;;;;;;-0.57;41.64844;95429.58;;;;
2022/03/07 01:12:05;;;;;;;15.05;9.45;;;;;;;-0.57;41.64844;95429.58;;;;
2022/03/07 01:13:06;;;;;;;15.05;9.45;;;;;;;-0.57;41.64844;95429.58;;;;
2022/03/07 01:14:07;;;;;;;15.05;9.45;;;;;;;-0.57;41.64844;95429.58;;;;
2022/03/07 01:15:08;;;;;;;15.05;9.45;;;;;;;-0.57;41.64844;95429.58;;;;
2022/03/07 01:16:10;;;;;;;15.05;9.45;;;;;;;-0.57;41.64844;95429.58;;;;
2022/03/07 01:17:10;;;;;;;14.4;10.5;;;;;;;-0.63;42.15918;95427.57;;;;
2022/03/07 01:18:10;;;;;;;14.4;10.5;;;;;;;-0.63;42.15918;95427.57;;;;
2022/03/07 01:19:11;;;;;;;14.4;10.5;;;;;;;-0.63;42.15918;95427.57;;;;
2022/03/07 01:20:12;;;;;;;14.4;10.5;;;;;;;-0.63;42.15918;95427.57;;;;
2022/03/07 01:21:12;;;;;;;14.4;10.5;;;;;;;-0.63;42.15918;95427.57;;;;
2022/03/07 01:22:13;;;;;;;14.4;10.5;;;;;;;-0.63;42.15918;95427.57;;;;
2022/03/07 01:23:13;;;;;;;14.4;10.5;;;;;;;-0.63;42.15918;95427.57;;;;
2022/03/07 01:24:14;;;;;;;14.4;10.5;;;;;;;-0.63;42.15918;95427.57;;;;
2022/03/07 01:25:14;;;;;;;14.4;10.5;;;;;;;-0.63;42.15918;95427.57;;;;
2022/03/07 01:26:15;;;;;;;14.4;10.5;;;;;;;-0.63;42.15918;95427.57;;;;
2022/03/07 01:27:15;;;;;;;15.9;10.25;;;;;;;-0.69;42.4043;95431.39;;;;
2022/03/07 01:28:16;;;;;;;15.9;10.25;;;;;;;-0.69;42.4043;95431.39;;;;
2022/03/07 01:29:16;;;;;;;15.9;10.25;;;;;;;-0.69;42.4043;95431.39;;;;
2022/03/07 01:30:17;;;;;;;15.9;10.25;;;;;;;-0.69;42.4043;95431.39;;;;
2022/03/07 01:31:17;;;;;;;15.9;10.25;;;;;;;-0.69;42.4043;95431.39;;;;
2022/03/07 01:32:18;;;;;;;15.9;10.25;;;;;;;-0.69;42.4043;95431.39;;;;
2022/03/07 01:33:18;;;;;;;15.9;10.25;;;;;;;-0.69;42.4043;95431.39;;;;
2022/03/07 01:34:19;;;;;;;15.9;10.25;;;;;;;-0.69;42.4043;95431.39;;;;
2022/03/07 01:35:19;;;;;;;15.9;10.25;;;;;;;-0.69;42.4043;95431.39;;;;
2022/03/07 01:36:22;;;;;;;15.9;10.25;;;;;;;-0.69;42.4043;95431.39;;;;
2022/03/07 01:37:23;;;;;;;15.9;10.25;;;;;;;-0.69;42.4043;95431.39;;;;
2022/03/07 01:38:23;;;;;;;15.2;10.15;;;;;;;-0.73;42.45313;95434.45;;;;
2022/03/07 01:39:24;;;;;;;15.2;10.15;;;;;;;-0.73;42.45313;95434.45;;;;
2022/03/07 01:40:25;;;;;;;15.2;10.15;;;;;;;-0.73;42.45313;95434.45;;;;
2022/03/07 01:41:25;;;;;;;15.2;10.15;;;;;;;-0.73;42.45313;95434.45;;;;
2022/03/07 01:42:26;;;;;;;15.2;10.15;;;;;;;-0.73;42.45313;95434.45;;;;
2022/03/07 01:43:27;;;;;;;15.2;10.15;;;;;;;-0.73;42.45313;95434.45;;;;
2022/03/07 01:44:28;;;;;;;15.2;10.15;;;;;;;-0.73;42.45313;95434.45;;;;
2022/03/07 01:45:29;;;;;;;15.2;10.15;;;;;;;-0.73;42.45313;95434.45;;;;
2022/03/07 01:46:29;;;;;;;15.2;10.15;;;;;;;-0.73;42.45313;95434.45;;;;
2022/03/07 01:47:33;;;;;;;15.2;10.15;;;;;;;-0.73;42.45313;95434.45;;;;
2022/03/07 01:48:33;;;;;;;16.8;11.1;;;;;;;-0.7;42.68848;95426.58;;;;
2022/03/07 01:49:34;;;;;;;16.8;11.1;;;;;;;-0.7;42.68848;95426.58;;;;
2022/03/07 01:50:35;;;;;;;16.8;11.1;;;;;;;-0.7;42.68848;95426.58;;;;
2022/03/07 01:51:38;;;;;;;16.8;11.1;;;;;;;-0.7;42.68848;95426.58;;;;
2022/03/07 01:52:41;;;;;;;16.8;11.1;;;;;;;-0.7;42.68848;95426.58;;;;
2022/03/07 01:53:44;;;;;;;16.8;11.1;;;;;;;-0.7;42.68848;95426.58;;;;
2022/03/07 01:54:44;;;;;;;16.8;11.1;;;;;;;-0.7;42.68848;95426.58;;;;
2022/03/07 01:55:46;;;;;;;16.8;11.1;;;;;;;-0.7;42.68848;95426.58;;;;
2022/03/07 01:56:46;;;;;;;16.8;11.1;;;;;;;-0.7;42.68848;95426.58;;;;
2022/03/07 01:57:50;;;;;;;16.8;11.1;;;;;;;-0.7;42.68848;95426.58;;;;
2022/03/07 01:58:51;;;;;;;16.8;11.1;;;;;;;-0.7;42.68848;95426.58;;;;
2022/03/07 01:59:51;;;;;;;15.7;10.85;;;;;;;-0.7;43.35059;95427.09;;;;
2022/03/07 02:00:52;;;;;;;15.7;10.85;;;;;;;-0.7;43.35059;95427.09;;;;
2022/03/07 02:01:52;;;;;;;15.7;10.85;;;;;;;-0.7;43.35059;95427.09;;;;
2022/03/07 02:02:54;;;;;;;15.7;10.85;;;;;;;-0.7;43.35059;95427.09;;;;
2022/03/07 02:03:55;;;;;;;15.7;10.85;;;;;;;-0.7;43.35059;95427.09;;;;
2022/03/07 02:04:56;;;;;;;15.7;10.85;;;;;;;-0.7;43.35059;95427.09;;;;
2022/03/07 02:05:56;;;;;;;15.7;10.85;;;;;;;-0.7;43.35059;95427.09;;;;
2022/03/07 02:06:57;;;;;;;15.7;10.85;;;;;;;-0.7;43.35059;95427.09;;;;
2022/03/07 02:07:57;;;;;;;15.7;10.85;;;;;;;-0.7;43.35059;95427.09;;;;
2022/03/07 02:08:58;;;;;;;15.7;10.85;;;;;;;-0.7;43.35059;95427.09;;;;
2022/03/07 02:09:59;;;;;;;16.15;11.25;;;;;;;-0.79;43.80469;95417.86;;;;
2022/03/07 02:11:00;;;;;;;16.15;11.25;;;;;;;-0.79;43.80469;95417.86;;;;
2022/03/07 02:12:01;;;;;;;16.15;11.25;;;;;;;-0.79;43.80469;95417.86;;;;
2022/03/07 02:13:01;;;;;;;16.15;11.25;;;;;;;-0.79;43.80469;95417.86;;;;
2022/03/07 02:14:09;;;;;;;16.15;11.25;;;;;;;-0.79;43.80469;95417.86;;;;
2022/03/07 02:15:13;;;;;;;16.15;11.25;;;;;;;-0.79;43.80469;95417.86;;;;
2022/03/07 02:16:14;;;;;;;16.15;11.25;;;;;;;-0.79;43.80469;95417.86;;;;
2022/03/07 02:17:16;;;;;;;16.15;11.25;;;;;;;-0.79;43.80469;95417.86;;;;
2022/03/07 02:18:17;;;;;;;16.15;11.25;;;;;;;-0.79;43.80469;95417.86;;;;
2022/03/07 02:19:17;;;;;;;16.15;11.25;;;;;;;-0.79;43.80469;95417.86;;;;
2022/03/07 02:20:18;;;;;;;18.45;12.35;;;;;;;-0.91;44.22266;95415.62;;;;
2022/03/07 02:21:19;;;;;;;18.45;12.35;;;;;;;-0.91;44.22266;95415.62;;;;
2022/03/07 02:22:19;;;;;;;18.45;12.35;;;;;;;-0.91;44.22266;95415.62;;;;
2022/03/07 02:23:21;;;;;;;18.45;12.35;;;;;;;-0.91;44.22266;95415.62;;;;
2022/03/07 02:24:21;;;;;;;18.45;12.35;;;;;;;-0.91;44.22266;95415.62;;;;
2022/03/07 02:25:22;;;;;;;18.45;12.35;;;;;;;-0.91;44.22266;95415.62;;;;
2022/03/07 02:26:22;;;;;;;18.45;12.35;;;;;;;-0.91;44.22266;95415.62;;;;
2022/03/07 02:27:23;;;;;;;18.45;12.35;;;;;;;-0.91;44.22266;95415.62;;;;
2022/03/07 02:28:23;;;;;;;18.45;12.35;;;;;;;-0.91;44.22266;95415.62;;;;
2022/03/07 02:29:24;;;;;;;18.45;12.35;;;;;;;-0.91;44.22266;95415.62;;;;
2022/03/07 02:30:26;;;;;;;18.45;12.35;;;;;;;-0.91;44.22266;95415.62;;;;
2022/03/07 02:31:26;;;;;;;19;12.35;;;;;;;-0.99;44.21484;95416.94;;;;
2022/03/07 02:32:27;;;;;;;19;12.35;;;;;;;-0.99;44.21484;95416.94;;;;
2022/03/07 02:33:27;;;;;;;19;12.35;;;;;;;-0.99;44.21484;95416.94;;;;
2022/03/07 02:34:28;;;;;;;19;12.35;;;;;;;-0.99;44.21484;95416.94;;;;
2022/03/07 02:35:29;;;;;;;19;12.35;;;;;;;-0.99;44.21484;95416.94;;;;
2022/03/07 02:36:29;;;;;;;19;12.35;;;;;;;-0.99;44.21484;95416.94;;;;
2022/03/07 02:37:30;;;;;;;19;12.35;;;;;;;-0.99;44.21484;95416.94;;;;
2022/03/07 02:38:31;;;;;;;19;12.35;;;;;;;-0.99;44.21484;95416.94;;;;
2022/03/07 02:39:31;;;;;;;19;12.35;;;;;;;-0.99;44.21484;95416.94;;;;
2022/03/07 02:40:32;;;;;;;19;12.35;;;;;;;-0.99;44.21484;95416.94;;;;
2022/03/07 02:41:32;;;;;;;19;12.35;;;;;;;-0.99;44.21484;95416.94;;;;
2022/03/07 02:42:33;;;;;;;21.2;12.7;;;;;;;-0.96;44.45898;95421.07;;;;
2022/03/07 02:43:33;;;;;;;21.2;12.7;;;;;;;-0.96;44.45898;95421.07;;;;
2022/03/07 02:44:34;;;;;;;21.2;12.7;;;;;;;-0.96;44.45898;95421.07;;;;
2022/03/07 02:45:34;;;;;;;21.2;12.7;;;;;;;-0.96;44.45898;95421.07;;;;
2022/03/07 02:46:35;;;;;;;21.2;12.7;;;;;;;-0.96;44.45898;95421.07;;;;
2022/03/07 02:47:35;;;;;;;21.2;12.7;;;;;;;-0.96;44.45898;95421.07;;;;
2022/03/07 02:48:36;;;;;;;21.2;12.7;;;;;;;-0.96;44.45898;95421.07;;;;
2022/03/07 02:49:36;;;;;;;21.2;12.7;;;;;;;-0.96;44.45898;95421.07;;;;
2022/03/07 02:50:37;;;;;;;21.2;12.7;;;;;;;-0.96;44.45898;95421.07;;;;
2022/03/07 02:51:38;;;;;;;21.2;12.7;;;;;;;-0.96;44.45898;95421.07;;;;
2022/03/07 02:52:38;;;;;;;19.6;12.6;;;;;;;-0.96;44.62695;95423.24;;;;
2022/03/07 02:53:39;;;;;;;19.6;12.6;;;;;;;-0.96;44.62695;95423.24;;;;
2022/03/07 02:54:39;;;;;;;19.6;12.6;;;;;;;-0.96;44.62695;95423.24;;;;
2022/03/07 02:55:40;;;;;;;19.6;12.6;;;;;;;-0.96;44.62695;95423.24;;;;
2022/03/07 02:56:40;;;;;;;19.6;12.6;;;;;;;-0.96;44.62695;95423.24;;;;
2022/03/07 02:57:41;;;;;;;19.6;12.6;;;;;;;-0.96;44.62695;95423.24;;;;
2022/03/07 02:58:41;;;;;;;19.6;12.6;;;;;;;-0.96;44.62695;95423.24;;;;
2022/03/07 02:59:43;;;;;;;19.6;12.6;;;;;;;-0.96;44.62695;95423.24;;;;
2022/03/07 03:00:43;;;;;;;19.6;12.6;;;;;;;-0.96;44.62695;95423.24;;;;
2022/03/07 03:01:44;;;;;;;19.6;12.6;;;;;;;-0.96;44.62695;95423.24;;;;
2022/03/07 03:02:45;;;;;;;19.6;12.6;;;;;;;-0.96;44.62695;95423.24;;;;
2022/03/07 03:03:45;;;;;;;20.1;13.35;;;;;;;-1.04;45.64746;95429.41;;;;
2022/03/07 03:04:46;;;;;;;20.1;13.35;;;;;;;-1.04;45.64746;95429.41;;;;
2022/03/07 03:05:46;;;;;;;20.1;13.35;;;;;;;-1.04;45.64746;95429.41;;;;
2022/03/07 03:06:47;;;;;;;20.1;13.35;;;;;;;-1.04;45.64746;95429.41;;;;
2022/03/07 03:07:47;;;;;;;20.1;13.35;;;;;;;-1.04;45.64746;95429.41;;;;
2022/03/07 03:08:48;;;;;;;20.1;13.35;;;;;;;-1.04;45.64746;95429.41;;;;
2022/03/07 03:09:48;;;;;;;20.1;13.35;;;;;;;-1.04;45.64746;95429.41;;;;
2022/03/07 03:10:49;;;;;;;20.1;13.35;;;;;;;-1.04;45.64746;95429.41;;;;
2022/03/07 03:11:50;;;;;;;20.1;13.35;;;;;;;-1.04;45.64746;95429.41;;;;
2022/03/07 03:12:50;;;;;;;20.1;13.35;;;;;;;-1.04;45.64746;95429.41;;;;
2022/03/07 03:13:51;;;;;;;19;12.15;;;;;;;-1.17;45.82324;95424.57;;;;
2022/03/07 03:14:51;;;;;;;19;12.15;;;;;;;-1.17;45.82324;95424.57;;;;
2022/03/07 03:15:52;;;;;;;19;12.15;;;;;;;-1.17;45.82324;95424.57;;;;
2022/03/07 03:16:54;;;;;;;19;12.15;;;;;;;-1.17;45.82324;95424.57;;;;
2022/03/07 03:17:54;;;;;;;19;12.15;;;;;;;-1.17;45.82324;95424.57;;;;
2022/03/07 03:18:55;;;;;;;19;12.15;;;;;;;-1.17;45.82324;95424.57;;;;
2022/03/07 03:19:55;;;;;;;19;12.15;;;;;;;-1.17;45.82324;95424.57;;;;
2022/03/07 03:20:56;;;;;;;19;12.15;;;;;;;-1.17;45.82324;95424.57;;;;
2022/03/07 03:21:57;;;;;;;19;12.15;;;;;;;-1.17;45.82324;95424.57;;;;
2022/03/07 03:22:58;;;;;;;19;12.15;;;;;;;-1.17;45.82324;95424.57;;;;
2022/03/07 03:23:58;;;;;;;19;12.15;;;;;;;-1.17;45.82324;95424.57;;;;
2022/03/07 03:24:59;;;;;;;17.25;11.65;;;;;;;-1.25;46.26563;95425.47;;;;
2022/03/07 03:25:59;;;;;;;17.25;11.65;;;;;;;-1.25;46.26563;95425.47;;;;
2022/03/07 03:27:00;;;;;;;17.25;11.65;;;;;;;-1.25;46.26563;95425.47;;;;
2022/03/07 03:28:00;;;;;;;17.25;11.65;;;;;;;-1.25;46.26563;95425.47;;;;
2022/03/07 03:29:01;;;;;;;17.25;11.65;;;;;;;-1.25;46.26563;95425.47;;;;
2022/03/07 03:30:02;;;;;;;17.25;11.65;;;;;;;-1.25;46.26563;95425.47;;;;
2022/03/07 03:31:04;;;;;;;17.25;11.65;;;;;;;-1.25;46.26563;95425.47;;;;
2022/03/07 03:32:05;;;;;;;17.25;11.65;;;;;;;-1.25;46.26563;95425.47;;;;
2022/03/07 03:33:06;;;;;;;17.25;11.65;;;;;;;-1.25;46.26563;95425.47;;;;
2022/03/07 03:34:07;;;;;;;17.25;11.65;;;;;;;-1.25;46.26563;95425.47;;;;
2022/03/07 03:35:07;;;;;;;17.25;11.65;;;;;;;-1.25;46.26563;95425.47;;;;
2022/03/07 03:36:09;;;;;;;17.25;11.65;;;;;;;-1.25;46.26563;95425.47;;;;
2022/03/07 03:37:09;;;;;;;17.25;11.65;;;;;;;-1.25;46.26563;95425.47;;;;
2022/03/07 03:38:10;;;;;;;17.25;11.65;;;;;;;-1.25;46.26563;95425.47;;;;
2022/03/07 03:39:10;;;;;;;17.25;11.65;;;;;;;-1.25;46.26563;95425.47;;;;
2022/03/07 03:40:11;;;;;;;17.25;11.65;;;;;;;-1.25;46.26563;95425.47;;;;
2022/03/07 03:41:12;;;;;;;17.25;11.65;;;;;;;-1.25;46.26563;95425.47;;;;
2022/03/07 03:42:13;;;;;;;17.25;11.65;;;;;;;-1.25;46.26563;95425.47;;;;
2022/03/07 03:43:13;;;;;;;17.25;11.65;;;;;;;-1.25;46.26563;95425.47;;;;
2022/03/07 03:44:14;;;;;;;17.25;11.65;;;;;;;-1.25;46.26563;95425.47;;;;
2022/03/07 03:45:14;;;;;;;17.25;11.65;;;;;;;-1.25;46.26563;95425.47;;;;
2022/03/07 03:46:15;;;;;;;15.95;10.05;;;;;;;-1.35;46.50684;95426.11;;;;
2022/03/07 03:47:15;;;;;;;15.95;10.05;;;;;;;-1.35;46.50684;95426.11;;;;
2022/03/07 03:48:16;;;;;;;15.95;10.05;;;;;;;-1.35;46.50684;95426.11;;;;
2022/03/07 03:49:17;;;;;;;15.95;10.05;;;;;;;-1.35;46.50684;95426.11;;;;
2022/03/07 03:50:18;;;;;;;15.95;10.05;;;;;;;-1.35;46.50684;95426.11;;;;
2022/03/07 03:51:18;;;;;;;15.95;10.05;;;;;;;-1.35;46.50684;95426.11;;;;
2022/03/07 03:52:19;;;;;;;15.95;10.05;;;;;;;-1.35;46.50684;95426.11;;;;
2022/03/07 03:53:20;;;;;;;15.95;10.05;;;;;;;-1.35;46.50684;95426.11;;;;
2022/03/07 03:54:20;;;;;;;15.95;10.05;;;;;;;-1.35;46.50684;95426.11;;;;
2022/03/07 03:55:21;;;;;;;15.95;10.05;;;;;;;-1.35;46.50684;95426.11;;;;
2022/03/07 03:56:22;;;;;;;17;10.05;;;;;;;-1.32;46.09961;95430.66;;;;
2022/03/07 03:57:22;;;;;;;17;10.05;;;;;;;-1.32;46.09961;95430.66;;;;
2022/03/07 03:58:23;;;;;;;17;10.05;;;;;;;-1.32;46.09961;95430.66;;;;
2022/03/07 03:59:24;;;;;;;17;10.05;;;;;;;-1.32;46.09961;95430.66;;;;
2022/03/07 04:00:24;;;;;;;17;10.05;;;;;;;-1.32;46.09961;95430.66;;;;
2022/03/07 04:01:25;;;;;;;17;10.05;;;;;;;-1.32;46.09961;95430.66;;;;
2022/03/07 04:02:25;;;;;;;17;10.05;;;;;;;-1.32;46.09961;95430.66;;;;
2022/03/07 04:03:27;;;;;;;17;10.05;;;;;;;-1.32;46.09961;95430.66;;;;
2022/03/07 04:04:27;;;;;;;17;10.05;;;;;;;-1.32;46.09961;95430.66;;;;
2022/03/07 04:05:28;;;;;;;17;10.05;;;;;;;-1.32;46.09961;95430.66;;;;
2022/03/07 04:06:28;;;;;;;17;10.05;;;;;;;-1.32;46.09961;95430.66;;;;
2022/03/07 04:07:29;;;;;;;16.95;10.15;;;;;;;-1.3;46.29199;95436.14;;;;
2022/03/07 04:08:29;;;;;;;16.95;10.15;;;;;;;-1.3;46.29199;95436.14;;;;
2022/03/07 04:09:30;;;;;;;16.95;10.15;;;;;;;-1.3;46.29199;95436.14;;;;
2022/03/07 04:10:30;;;;;;;16.95;10.15;;;;;;;-1.3;46.29199;95436.14;;;;
2022/03/07 04:11:31;;;;;;;16.95;10.15;;;;;;;-1.3;46.29199;95436.14;;;;
2022/03/07 04:12:31;;;;;;;16.95;10.15;;;;;;;-1.3;46.29199;95436.14;;;;
2022/03/07 04:13:32;;;;;;;16.95;10.15;;;;;;;-1.3;46.29199;95436.14;;;;
2022/03/07 04:14:32;;;;;;;16.95;10.15;;;;;;;-1.3;46.29199;95436.14;;;;
2022/03/07 04:15:38;;;;;;;16.95;10.15;;;;;;;-1.3;46.29199;95436.14;;;;
2022/03/07 04:16:39;;;;;;;16.95;10.15;;;;;;;-1.3;46.29199;95436.14;;;;
2022/03/07 04:17:39;;;;;;;16.95;10.15;;;;;;;-1.3;46.29199;95436.14;;;;
2022/03/07 04:18:41;;;;;;;16.7;10.45;;;;;;;-1.28;45.96875;95435.97;;;;
2022/03/07 04:19:42;;;;;;;16.7;10.45;;;;;;;-1.28;45.96875;95435.97;;;;
2022/03/07 04:20:42;;;;;;;16.7;10.45;;;;;;;-1.28;45.96875;95435.97;;;;
2022/03/07 04:21:43;;;;;;;16.7;10.45;;;;;;;-1.28;45.96875;95435.97;;;;
2022/03/07 04:22:43;;;;;;;16.7;10.45;;;;;;;-1.28;45.96875;95435.97;;;;
2022/03/07 04:23:44;;;;;;;16.7;10.45;;;;;;;-1.28;45.96875;95435.97;;;;
2022/03/07 04:24:45;;;;;;;16.7;10.45;;;;;;;-1.28;45.96875;95435.97;;;;
2022/03/07 04:25:45;;;;;;;16.7;10.45;;;;;;;-1.28;45.96875;95435.97;;;;
2022/03/07 04:26:46;;;;;;;16.7;10.45;;;;;;;-1.28;45.96875;95435.97;;;;
2022/03/07 04:27:46;;;;;;;16.7;10.45;;;;;;;-1.28;45.96875;95435.97;;;;
2022/03/07 04:28:47;;;;;;;15.55;9.000001;;;;;;;-1.31;46.45996;95428.27;;;;
2022/03/07 04:29:48;;;;;;;15.55;9.000001;;;;;;;-1.31;46.45996;95428.27;;;;
2022/03/07 04:30:48;;;;;;;15.55;9.000001;;;;;;;-1.31;46.45996;95428.27;;;;
2022/03/07 04:31:48;;;;;;;15.55;9.000001;;;;;;;-1.31;46.45996;95428.27;;;;
2022/03/07 04:32:49;;;;;;;15.55;9.000001;;;;;;;-1.31;46.45996;95428.27;;;;
2022/03/07 04:33:49;;;;;;;15.55;9.000001;;;;;;;-1.31;46.45996;95428.27;;;;
2022/03/07 04:34:50;;;;;;;15.55;9.000001;;;;;;;-1.31;46.45996;95428.27;;;;
2022/03/07 04:35:50;;;;;;;15.55;9.000001;;;;;;;-1.31;46.45996;95428.27;;;;
2022/03/07 04:36:51;;;;;;;15.55;9.000001;;;;;;;-1.31;46.45996;95428.27;;;;
2022/03/07 04:37:52;;;;;;;15.55;9.000001;;;;;;;-1.31;46.45996;95428.27;;;;
2022/03/07 04:38:52;;;;;;;15.55;9.000001;;;;;;;-1.31;46.45996;95428.27;;;;
2022/03/07 04:39:53;;;;;;;13.7;8.9;;;;;;;-1.37;46.57813;95423.21;;;;
2022/03/07 04:40:53;;;;;;;13.7;8.9;;;;;;;-1.37;46.57813;95423.21;;;;
2022/03/07 04:41:54;;;;;;;13.7;8.9;;;;;;;-1.37;46.57813;95423.21;;;;
2022/03/07 04:42:55;;;;;;;13.7;8.9;;;;;;;-1.37;46.57813;95423.21;;;;
2022/03/07 04:43:56;;;;;;;13.7;8.9;;;;;;;-1.37;46.57813;95423.21;;;;
2022/03/07 04:44:56;;;;;;;13.7;8.9;;;;;;;-1.37;46.57813;95423.21;;;;
2022/03/07 04:45:58;;;;;;;13.7;8.9;;;;;;;-1.37;46.57813;95423.21;;;;
2022/03/07 04:46:59;;;;;;;13.7;8.9;;;;;;;-1.37;46.57813;95423.21;;;;
2022/03/07 04:47:59;;;;;;;13.7;8.9;;;;;;;-1.37;46.57813;95423.21;;;;
2022/03/07 04:49:00;;;;;;;13.7;8.9;;;;;;;-1.37;46.57813;95423.21;;;;
2022/03/07 04:50:00;;;;;;;14.4;9.450001;;;;;;;-1.42;46.75195;95432.09;;;;
2022/03/07 04:51:01;;;;;;;14.4;9.450001;;;;;;;-1.42;46.75195;95432.09;;;;
2022/03/07 04:52:02;;;;;;;14.4;9.450001;;;;;;;-1.42;46.75195;95432.09;;;;
2022/03/07 04:53:04;;;;;;;14.4;9.450001;;;;;;;-1.42;46.75195;95432.09;;;;
2022/03/07 04:54:04;;;;;;;14.4;9.450001;;;;;;;-1.42;46.75195;95432.09;;;;
2022/03/07 04:55:05;;;;;;;14.4;9.450001;;;;;;;-1.42;46.75195;95432.09;;;;
2022/03/07 04:56:07;;;;;;;14.4;9.450001;;;;;;;-1.42;46.75195;95432.09;;;;
2022/03/07 04:57:08;;;;;;;14.4;9.450001;;;;;;;-1.42;46.75195;95432.09;;;;
2022/03/07 04:58:08;;;;;;;14.4;9.450001;;;;;;;-1.42;46.75195;95432.09;;;;
2022/03/07 04:59:09;;;;;;;14.4;9.450001;;;;;;;-1.42;46.75195;95432.09;;;;
2022/03/07 05:00:10;;;;;;;14.4;9.450001;;;;;;;-1.42;46.75195;95432.09;;;;
2022/03/07 05:01:14;;;;;;;16.25;10.35;;;;;;;-1.44;46.80078;95439.78;;;;
2022/03/07 05:02:14;;;;;;;16.25;10.35;;;;;;;-1.44;46.80078;95439.78;;;;
2022/03/07 05:03:15;;;;;;;16.25;10.35;;;;;;;-1.44;46.80078;95439.78;;;;
2022/03/07 05:04:15;;;;;;;16.25;10.35;;;;;;;-1.44;46.80078;95439.78;;;;
2022/03/07 05:05:18;;;;;;;16.25;10.35;;;;;;;-1.44;46.80078;95439.78;;;;
2022/03/07 05:06:18;;;;;;;16.25;10.35;;;;;;;-1.44;46.80078;95439.78;;;;
2022/03/07 05:07:19;;;;;;;16.25;10.35;;;;;;;-1.44;46.80078;95439.78;;;;
2022/03/07 05:08:19;;;;;;;16.25;10.35;;;;;;;-1.44;46.80078;95439.78;;;;
2022/03/07 05:09:20;;;;;;;16.25;10.35;;;;;;;-1.44;46.80078;95439.78;;;;
2022/03/07 05:10:20;;;;;;;16.25;10.35;;;;;;;-1.44;46.80078;95439.78;;;;
2022/03/07 05:11:21;;;;;;;15.5;10.1;;;;;;;-1.51;46.99316;95428.69;;;;
2022/03/07 05:12:21;;;;;;;15.5;10.1;;;;;;;-1.51;46.99316;95428.69;;;;
2022/03/07 05:13:22;;;;;;;15.5;10.1;;;;;;;-1.51;46.99316;95428.69;;;;
2022/03/07 05:14:22;;;;;;;15.5;10.1;;;;;;;-1.51;46.99316;95428.69;;;;
2022/03/07 05:15:23;;;;;;;15.5;10.1;;;;;;;-1.51;46.99316;95428.69;;;;
2022/03/07 05:16:23;;;;;;;15.5;10.1;;;;;;;-1.51;46.99316;95428.69;;;;
2022/03/07 05:17:24;;;;;;;15.5;10.1;;;;;;;-1.51;46.99316;95428.69;;;;
2022/03/07 05:18:25;;;;;;;15.5;10.1;;;;;;;-1.51;46.99316;95428.69;;;;
2022/03/07 05:19:25;;;;;;;15.5;10.1;;;;;;;-1.51;46.99316;95428.69;;;;
2022/03/07 05:20:26;;;;;;;15.5;10.1;;;;;;;-1.51;46.99316;95428.69;;;;
2022/03/07 05:21:27;;;;;;;15.5;10.1;;;;;;;-1.51;46.99316;95428.69;;;;
2022/03/07 05:22:27;;;;;;;13.6;9.499999;;;;;;;-1.57;47.08008;95434.2;;;;
2022/03/07 05:23:28;;;;;;;13.6;9.499999;;;;;;;-1.57;47.08008;95434.2;;;;
2022/03/07 05:24:28;;;;;;;13.6;9.499999;;;;;;;-1.57;47.08008;95434.2;;;;
2022/03/07 05:25:29;;;;;;;13.6;9.499999;;;;;;;-1.57;47.08008;95434.2;;;;
2022/03/07 05:26:29;;;;;;;13.6;9.499999;;;;;;;-1.57;47.08008;95434.2;;;;
2022/03/07 05:27:30;;;;;;;13.6;9.499999;;;;;;;-1.57;47.08008;95434.2;;;;
2022/03/07 05:28:30;;;;;;;13.6;9.499999;;;;;;;-1.57;47.08008;95434.2;;;;
2022/03/07 05:29:31;;;;;;;13.6;9.499999;;;;;;;-1.57;47.08008;95434.2;;;;
2022/03/07 05:30:32;;;;;;;13.6;9.499999;;;;;;;-1.57;47.08008;95434.2;;;;
2022/03/07 05:31:32;;;;;;;13.6;9.499999;;;;;;;-1.57;47.08008;95434.2;;;;
2022/03/07 05:32:33;;;;;;;14.3;9.150001;;;;;;;-1.58;46.89063;95441.82;;;;
2022/03/07 05:33:33;;;;;;;14.3;9.150001;;;;;;;-1.58;46.89063;95441.82;;;;
2022/03/07 05:34:34;;;;;;;14.3;9.150001;;;;;;;-1.58;46.89063;95441.82;;;;
2022/03/07 05:35:35;;;;;;;14.3;9.150001;;;;;;;-1.58;46.89063;95441.82;;;;
2022/03/07 05:36:35;;;;;;;14.3;9.150001;;;;;;;-1.58;46.89063;95441.82;;;;
2022/03/07 05:37:36;;;;;;;14.3;9.150001;;;;;;;-1.58;46.89063;95441.82;;;;
2022/03/07 05:38:37;;;;;;;14.3;9.150001;;;;;;;-1.58;46.89063;95441.82;;;;
2022/03/07 05:39:37;;;;;;;14.3;9.150001;;;;;;;-1.58;46.89063;95441.82;;;;